Tokyo, Japan

3:15 AM JST on September 23, 2014 (GMT +0900)
Tokyo (Haneda) International | Change Station
CLOSE
Current Station
Airport
Location: Tokyo,
Elevation: 26 ft
Nearby Weather Stations

Elev 26 ft 35.55 °N, 139.78 °E | Updated 15 minutes ago

Partly Cloudy
Partly Cloudy
68 °F
Feels Like 68 °F
N
10
Wind Variable Wind from North

Today
High -- | Low -- °F
--% Chance of Precip.
Yesterday
High -- | Low -- °F
Precip. -- in
5:29 AM 5:37 PM
Waning Crescent, 2% visible
Pressure 30.12 in
Visibility 6.2 miles
Clouds Few 5000 ft
Dew Point 61 °F
Humidity 78%
Rainfall 0.00 in
Snow Depth Not available.
UV 0 out of 12
Pollen Not available.
Air Quality Not available.
Flu Activity Not available.
METAR RJTT 221800Z 01009KT 9999 FEW050 20/16 Q1020 NOSIG RMK 1SC050 A3012

More Conditions Fewer Conditions

Pressure 30.12 in
Visibility 6.2 miles
Clouds Few 5000 ft
Dew Point 61 °F
Humidity 78%
Rainfall 0.00 in
Snow Depth Not available.
UV 0 out of 12
Pollen Not available.
Air Quality Not available.
Flu Activity Not available.
METAR RJTT 221800Z 01009KT 9999 FEW050 20/16 Q1020 NOSIG RMK 1SC050 A3012

More Conditions Fewer Conditions

10-Day Weather Forecast

Almanac

Astronomy

Sep. 23, 2014 Rise Set
Actual Time 5:29 AM JST 5:37 PM JST
Civil Twilight 5:03 AM JST 6:02 PM JST
Nautical Twilight 4:33 AM JST 6:32 PM JST
Astronomical Twilight 4:03 AM JST 7:02 PM JST
Moon 4:19 AM JST (9/23) 4:55 PM JST (9/23)
Length Of Visible Light 12h 58m
Length of Day
12h 08m
Tomorrow will be 2m 14s shorter.
Waning Crescent, 2% of the Moon is Illuminated
Sep 22
Waning Crescent
Sep 24
New
Oct 1
First Quarter
Oct 8
Full
Oct 15
Last Quarter

Yesterday's Extremes

Country Highs Country Lows

Community

WunderPhotos

Upload Photos

1,755,498 photos uploaded!

WunderBlogs® & News

Nearby

Snow Depth

Not available.

Earthquake Activity

City Distance Mag. Time & Date
No recent earthquake activity has been reported nearby.
Minimum magnitude displayed is 2.5.

Coastal Water Temperatures

Place Temperature
No Stations Reporting

Nearby Weather Stations